Time;durP1;ratioP1;P1;durP2;ratioP2;P2;SDS_P1;SDS_P2;PMS_P1;PMS_P2;Temp;Humidity;BMP_temperature;BMP_pressure;BME280_temperature;BME280_humidity;BME280_pressure;Samples;Min_cycle;Max_cycle;Signal;HPM_P1;HPM_P2
2023/08/05 00:02:58;;;;;;;6.40;4.20;;;;;;;19.08;100.00;98525.30;273145;1259;23259;-80
2023/08/05 00:09:00;;;;;;;8.90;4.50;;;;;;;19.07;100.00;98531.80;273139;1269;22364;-81
2023/08/05 00:15:02;;;;;;;8.10;4.70;;;;;;;19.07;100.00;98531.48;273085;1269;22391;-81
2023/08/05 00:21:04;;;;;;;8.20;4.00;;;;;;;19.06;100.00;98508.29;273100;1254;24196;-82
2023/08/05 00:27:06;;;;;;;9.80;4.60;;;;;;;19.05;100.00;98498.90;273180;1256;22391;-82
2023/08/05 00:33:08;;;;;;;7.20;4.10;;;;;;;19.00;100.00;98502.20;272986;1269;22311;-81
2023/08/05 00:39:09;;;;;;;7.50;4.20;;;;;;;18.99;100.00;98501.31;272881;1259;154844;-83
2023/08/05 00:45:11;;;;;;;7.80;3.90;;;;;;;18.94;100.00;98507.80;273053;1269;22568;-83
2023/08/05 00:51:12;;;;;;;9.30;4.10;;;;;;;18.90;100.00;98496.52;273102;1269;22320;-82
2023/08/05 00:57:15;;;;;;;7.50;4.00;;;;;;;18.84;100.00;98481.71;273392;1269;22280;-83
2023/08/05 01:03:17;;;;;;;7.90;4.10;;;;;;;18.81;100.00;98478.86;273037;1269;22306;-82
2023/08/05 01:09:19;;;;;;;8.10;4.30;;;;;;;18.80;100.00;98485.57;273028;1262;22190;-82
2023/08/05 01:15:41;;;;;;;7.50;4.40;;;;;;;18.77;100.00;98504.57;273594;1261;23217;-82
2023/08/05 01:22:11;;;;;;;9.40;4.20;;;;;;;18.72;100.00;98505.35;273101;1259;22351;-83
2023/08/05 01:28:14;;;;;;;9.80;4.80;;;;;;;18.64;100.00;98507.16;273092;1269;22324;-83
2023/08/05 01:34:15;;;;;;;9.60;4.30;;;;;;;18.59;100.00;98511.73;273140;1263;22303;-82
2023/08/05 01:40:17;;;;;;;9.20;4.30;;;;;;;18.59;100.00;98529.64;273180;1269;22448;-83
2023/08/05 01:46:19;;;;;;;12.40;4.30;;;;;;;18.56;100.00;98503.59;272542;1257;22728;-83
2023/08/05 01:52:22;;;;;;;6.90;4.60;;;;;;;18.50;100.00;98495.20;273083;1269;22194;-83
2023/08/05 01:58:23;;;;;;;8.30;4.40;;;;;;;18.53;100.00;98500.86;273041;1259;22228;-83
2023/08/05 02:04:25;;;;;;;8.40;4.30;;;;;;;18.56;100.00;98497.66;272013;1269;22356;-84
2023/08/05 02:10:28;;;;;;;7.90;3.70;;;;;;;18.56;100.00;98500.29;273081;1262;22352;-83
2023/08/05 02:16:34;;;;;;;7.30;3.90;;;;;;;18.57;100.00;98508.96;273139;1256;22349;-83
2023/08/05 02:22:35;;;;;;;11.30;4.70;;;;;;;18.53;100.00;98509.87;273086;1259;22357;-83
2023/08/05 02:28:37;;;;;;;9.50;4.90;;;;;;;18.48;100.00;98493.05;273182;1269;22518;-82
2023/08/05 02:34:39;;;;;;;8.80;4.60;;;;;;;18.47;100.00;98495.30;273068;1263;22708;-83
2023/08/05 02:40:40;;;;;;;10.10;4.50;;;;;;;18.48;100.00;98500.43;272060;1257;22320;-83
2023/08/05 02:46:42;;;;;;;7.70;3.70;;;;;;;18.46;100.00;98494.86;273121;1256;22311;-83
2023/08/05 02:52:43;;;;;;;8.90;4.40;;;;;;;18.47;100.00;98475.36;272183;1269;25380;-84
2023/08/05 02:58:45;;;;;;;7.50;4.20;;;;;;;18.50;100.00;98471.95;272352;1269;23518;-84
2023/08/05 03:04:47;;;;;;;7.20;4.40;;;;;;;18.50;100.00;98480.58;272471;1259;22509;-85
2023/08/05 03:10:58;;;;;;;8.90;3.80;;;;;;;18.46;100.00;98481.23;271561;1263;22545;-84
2023/08/05 03:17:00;;;;;;;9.20;4.30;;;;;;;18.29;100.00;98541.64;271705;1269;23542;-85
2023/08/05 03:23:02;;;;;;;12.60;5.00;;;;;;;18.02;100.00;98641.64;270265;1269;22678;-84
2023/08/05 03:29:04;;;;;;;13.40;5.80;;;;;;;17.82;100.00;98658.48;271572;1257;23724;-82
2023/08/05 03:35:06;;;;;;;15.00;5.10;;;;;;;17.67;100.00;98571.16;270503;1269;23218;-84
2023/08/05 03:41:08;;;;;;;11.50;5.10;;;;;;;17.52;100.00;98515.14;270400;1269;22542;-82
2023/08/05 03:47:12;;;;;;;10.10;4.80;;;;;;;17.39;100.00;98538.66;271392;1257;23746;-86
2023/08/05 03:53:14;;;;;;;9.50;4.30;;;;;;;17.39;100.00;98594.88;271066;1256;22373;-82
2023/08/05 03:59:17;;;;;;;15.00;4.60;;;;;;;17.42;100.00;98642.63;271532;1269;22487;-83
2023/08/05 04:05:19;;;;;;;6.40;4.50;;;;;;;17.37;100.00;98613.56;271868;1269;22244;-83
2023/08/05 04:11:23;;;;;;;11.20;4.90;;;;;;;17.29;100.00;98548.60;271597;1263;22685;-86
2023/08/05 04:17:26;;;;;;;7.20;4.40;;;;;;;17.22;100.00;98560.70;270747;1269;22571;-82
2023/08/05 04:23:31;;;;;;;7.70;5.10;;;;;;;17.17;100.00;98534.09;270554;1267;22526;-81
2023/08/05 04:29:32;;;;;;;7.90;5.00;;;;;;;17.15;100.00;98501.58;270309;1269;22594;-82
2023/08/05 04:35:35;;;;;;;6.40;3.90;;;;;;;17.12;100.00;98498.97;271914;1269;23172;-82
2023/08/05 04:41:39;;;;;;;8.30;4.50;;;;;;;17.13;100.00;98504.32;272044;1269;22219;-81
2023/08/05 04:47:41;;;;;;;9.20;4.70;;;;;;;17.15;100.00;98513.04;273217;1257;23782;-83
2023/08/05 04:53:43;;;;;;;6.90;4.60;;;;;;;17.16;100.00;98505.04;273271;1259;22286;-81
2023/08/05 04:59:47;;;;;;;10.00;4.80;;;;;;;17.10;100.00;98512.44;272716;1256;22454;-84
2023/08/05 05:05:51;;;;;;;7.70;5.20;;;;;;;17.07;100.00;98527.61;272545;1269;22356;-81
2023/08/05 05:11:54;;;;;;;8.00;6.10;;;;;;;17.11;100.00;98525.95;273289;1259;22241;-83
2023/08/05 05:17:55;;;;;;;10.40;6.00;;;;;;;17.14;100.00;98516.53;272913;1269;22503;-82
2023/08/05 05:23:57;;;;;;;7.20;5.70;;;;;;;17.09;100.00;98483.08;272869;1269;23578;-83
2023/08/05 05:30:03;;;;;;;12.20;5.80;;;;;;;17.05;100.00;98490.42;272045;1271;22210;-81
2023/08/05 05:36:04;;;;;;;10.40;6.20;;;;;;;17.07;100.00;98489.83;272747;1271;22245;-82
2023/08/05 05:42:07;;;;;;;11.70;6.10;;;;;;;17.12;100.00;98485.31;271163;1272;27670;-82
2023/08/05 05:48:09;;;;;;;12.40;6.90;;;;;;;17.13;100.00;98471.22;272669;1272;22389;-82
2023/08/05 05:54:10;;;;;;;11.50;6.10;;;;;;;17.10;100.00;98437.38;273100;1268;22233;-85
2023/08/05 06:00:14;;;;;;;11.10;7.00;;;;;;;17.04;100.00;98323.52;270566;1269;22517;-85
2023/08/05 06:06:16;;;;;;;14.00;9.40;;;;;;;16.99;100.00;98312.02;272321;1262;22629;-84
2023/08/05 06:12:18;;;;;;;13.80;8.00;;;;;;;17.02;100.00;98326.27;271396;1271;22547;-86
2023/08/05 06:18:20;;;;;;;11.40;7.60;;;;;;;17.06;100.00;98375.00;270241;1263;22507;-82
2023/08/05 06:24:23;;;;;;;10.80;7.20;;;;;;;17.12;100.00;98460.42;271055;1269;22549;-83
2023/08/05 06:30:24;;;;;;;12.00;7.20;;;;;;;17.13;100.00;98540.03;271742;1259;26466;-84
2023/08/05 06:36:34;;;;;;;11.60;7.80;;;;;;;17.17;100.00;98568.71;272561;1260;24049;-83
2023/08/05 06:42:39;;;;;;;11.40;8.20;;;;;;;17.21;100.00;98569.55;271356;1269;22196;-84
2023/08/05 06:48:41;;;;;;;10.30;7.80;;;;;;;17.26;100.00;98538.15;270770;1269;25484;-83
2023/08/05 06:54:43;;;;;;;10.10;6.90;;;;;;;17.27;100.00;98450.42;273020;1269;22314;-82
2023/08/05 07:00:51;;;;;;;11.80;8.20;;;;;;;17.26;100.00;98308.04;272880;1266;23208;-83
2023/08/05 07:06:53;;;;;;;10.00;6.90;;;;;;;17.23;100.00;98154.34;273065;1258;22610;-86
2023/08/05 07:13:00;;;;;;;11.60;6.60;;;;;;;17.24;100.00;98057.09;272042;1269;23248;-86
2023/08/05 07:19:12;;;;;;;9.20;5.10;;;;;;;17.36;100.00;98092.83;272977;1269;25437;-87
2023/08/05 07:25:14;;;;;;;7.70;4.20;;;;;;;17.53;100.00;98141.84;272096;1269;22741;-83
2023/08/05 07:31:16;;;;;;;11.80;5.70;;;;;;;17.66;100.00;98184.17;271925;1265;22631;-82
2023/08/05 07:37:18;;;;;;;8.40;5.40;;;;;;;17.72;100.00;98234.45;271002;1269;22557;-85
2023/08/05 07:43:23;;;;;;;7.60;5.60;;;;;;;17.75;100.00;98279.42;270983;1269;22272;-82
2023/08/05 07:49:26;;;;;;;10.50;6.70;;;;;;;17.75;100.00;98311.91;272629;1269;22830;-84
2023/08/05 07:55:32;;;;;;;11.60;7.30;;;;;;;17.76;100.00;98338.80;271994;1269;23627;-82
2023/08/05 08:01:34;;;;;;;11.10;6.50;;;;;;;17.76;100.00;98342.34;273121;1269;22695;-82
2023/08/05 08:07:35;;;;;;;9.50;6.00;;;;;;;17.76;100.00;98351.04;273042;1259;23148;-84
2023/08/05 08:13:38;;;;;;;10.20;6.80;;;;;;;17.76;100.00;98359.60;273238;1269;22421;-83
2023/08/05 08:19:42;;;;;;;8.00;5.90;;;;;;;17.76;100.00;98360.39;273284;1266;23240;-82
2023/08/05 08:25:43;;;;;;;9.00;6.80;;;;;;;17.77;100.00;98355.59;272589;1259;22379;-81
2023/08/05 08:31:45;;;;;;;8.70;6.50;;;;;;;17.83;100.00;98365.64;270607;1253;22581;-83
2023/08/05 08:37:47;;;;;;;8.70;6.30;;;;;;;17.83;100.00;98359.86;271109;1269;22518;-82
2023/08/05 08:43:49;;;;;;;8.70;6.00;;;;;;;17.82;100.00;98343.69;271713;1259;23019;-85
2023/08/05 08:49:52;;;;;;;8.90;6.20;;;;;;;17.82;100.00;98331.50;273266;1269;22942;-83
2023/08/05 08:55:56;;;;;;;8.10;6.00;;;;;;;17.87;100.00;98315.06;273545;1260;22256;-83
2023/08/05 09:01:59;;;;;;;7.50;6.10;;;;;;;17.92;100.00;98322.26;273336;1269;22192;-82
2023/08/05 09:08:02;;;;;;;8.80;6.60;;;;;;;17.98;100.00;98319.89;272735;1269;22540;-81
2023/08/05 09:14:04;;;;;;;8.10;7.20;;;;;;;18.01;100.00;98315.44;271592;1269;22324;-82
2023/08/05 09:20:13;;;;;;;10.60;7.40;;;;;;;18.02;100.00;98306.55;271936;1268;22375;-83
2023/08/05 09:26:31;;;;;;;10.10;6.30;;;;;;;18.00;100.00;98296.31;273277;1269;22352;-82
2023/08/05 09:32:38;;;;;;;7.80;6.30;;;;;;;18.05;100.00;98282.49;273132;1265;22215;-82
2023/08/05 09:38:40;;;;;;;7.20;5.10;;;;;;;18.10;100.00;98282.66;273312;1269;22192;-80
2023/08/05 09:45:08;;;;;;;6.90;5.10;;;;;;;18.14;100.00;98271.91;273192;1268;22201;-84
2023/08/05 09:51:17;;;;;;;6.30;5.50;;;;;;;18.29;100.00;98256.18;273231;1269;22471;-82
2023/08/05 09:57:20;;;;;;;7.10;5.30;;;;;;;18.45;100.00;98265.73;272833;1260;22225;-86
2023/08/05 10:03:25;;;;;;;6.10;5.40;;;;;;;18.62;100.00;98279.92;273275;1260;22460;-83
2023/08/05 10:09:27;;;;;;;5.90;5.10;;;;;;;18.89;100.00;98280.14;271331;1269;22498;-82
2023/08/05 10:15:31;;;;;;;5.30;4.40;;;;;;;19.07;100.00;98271.45;271285;1259;24295;-81
2023/08/05 10:21:37;;;;;;;5.00;3.90;;;;;;;19.30;100.00;98254.16;270786;1269;22732;-82
2023/08/05 10:27:41;;;;;;;4.70;3.60;;;;;;;19.72;100.00;98248.44;271444;1269;22433;-84
2023/08/05 10:34:09;;;;;;;6.10;4.00;;;;;;;20.10;100.00;98243.80;273399;1269;22262;-81
2023/08/05 10:40:37;;;;;;;6.30;3.70;;;;;;;20.51;100.00;98227.89;273069;1269;22275;-82
2023/08/05 10:46:42;;;;;;;3.70;2.70;;;;;;;21.02;100.00;98217.26;272624;1269;22380;-82
2023/08/05 10:52:44;;;;;;;3.70;3.00;;;;;;;21.61;100.00;98202.30;272236;1267;22349;-82
2023/08/05 10:58:50;;;;;;;4.00;2.90;;;;;;;21.74;100.00;98197.80;273280;1269;22535;-81
2023/08/05 11:05:12;;;;;;;2.70;2.30;;;;;;;21.56;100.00;98209.61;272330;1269;23660;-82
2023/08/05 11:11:15;;;;;;;3.00;2.30;;;;;;;21.54;100.00;98203.48;271812;1269;23752;-81
2023/08/05 11:17:17;;;;;;;3.80;2.50;;;;;;;21.47;100.00;98209.54;271962;1269;23552;-82
2023/08/05 11:23:18;;;;;;;3.10;2.30;;;;;;;21.34;100.00;98204.87;271422;1269;23625;-83
2023/08/05 11:29:20;;;;;;;2.80;2.20;;;;;;;21.34;100.00;98207.60;271695;1269;23276;-86
2023/08/05 11:35:23;;;;;;;3.20;2.50;;;;;;;21.38;100.00;98198.40;271938;1269;22324;-83
2023/08/05 11:41:26;;;;;;;3.70;2.60;;;;;;;21.38;100.00;98189.95;273692;1269;22147;-82
2023/08/05 11:47:28;;;;;;;3.20;2.60;;;;;;;21.36;100.00;98178.40;273791;1269;22213;-83
2023/08/05 11:53:30;;;;;;;3.80;2.80;;;;;;;21.41;100.00;98182.23;273139;1269;23072;-82
2023/08/05 11:59:37;;;;;;;5.90;3.80;;;;;;;21.50;100.00;98173.30;273269;1269;22304;-81
2023/08/05 12:05:39;;;;;;;6.50;5.20;;;;;;;21.53;100.00;98173.78;272449;1269;22481;-85
2023/08/05 12:11:45;;;;;;;3.80;3.30;;;;;;;21.57;100.00;98160.92;270837;1269;22538;-82
2023/08/05 12:17:48;;;;;;;3.70;3.20;;;;;;;21.62;100.00;98151.64;270795;1269;22209;-82
2023/08/05 12:23:50;;;;;;;4.20;3.20;;;;;;;21.65;100.00;98149.95;273249;1269;22384;-82
2023/08/05 12:29:51;;;;;;;4.50;3.40;;;;;;;21.63;100.00;98137.90;273135;1269;23977;-80
2023/08/05 12:35:53;;;;;;;7.60;4.00;;;;;;;21.62;100.00;98139.63;270600;1269;217998;-82
2023/08/05 12:41:55;;;;;;;5.40;4.10;;;;;;;21.61;100.00;98144.21;269739;1269;22599;-81
2023/08/05 12:47:56;;;;;;;7.80;4.90;;;;;;;21.59;100.00;98150.66;270203;1269;22967;-81
2023/08/05 12:53:58;;;;;;;5.70;4.70;;;;;;;21.55;100.00;98156.11;270508;1269;22590;-82
2023/08/05 13:00:01;;;;;;;4.60;3.70;;;;;;;21.49;100.00;98153.04;271332;1269;23452;-83
2023/08/05 13:06:02;;;;;;;4.20;3.20;;;;;;;21.45;100.00;98151.16;273244;1269;23747;-84
2023/08/05 13:12:05;;;;;;;4.50;3.10;;;;;;;21.41;100.00;98150.45;273074;1265;22374;-82
2023/08/05 13:18:07;;;;;;;3.20;2.50;;;;;;;21.36;100.00;98157.23;273298;1260;22199;-85
2023/08/05 13:24:09;;;;;;;3.40;2.90;;;;;;;21.31;100.00;98154.33;272010;1269;22538;-81
2023/08/05 13:30:11;;;;;;;5.30;3.00;;;;;;;21.29;100.00;98152.27;271941;1257;22458;-80
2023/08/05 13:36:12;;;;;;;7.60;3.30;;;;;;;21.26;100.00;98158.55;273004;1269;24481;-81
2023/08/05 13:42:14;;;;;;;4.10;3.30;;;;;;;21.23;100.00;98155.18;271787;1269;22658;-81
2023/08/05 13:48:18;;;;;;;4.80;3.20;;;;;;;21.20;100.00;98152.55;271460;1257;22341;-85
2023/08/05 13:54:20;;;;;;;5.00;2.80;;;;;;;21.17;100.00;98156.89;270929;1267;22520;-82
2023/08/05 14:00:22;;;;;;;6.30;3.30;;;;;;;21.14;100.00;98161.23;272098;1269;22609;-82
2023/08/05 14:06:25;;;;;;;3.90;3.50;;;;;;;21.11;100.00;98157.55;271993;1260;23799;-82
2023/08/05 14:12:27;;;;;;;5.10;3.50;;;;;;;21.07;100.00;98152.48;273083;1269;22279;-83
2023/08/05 14:18:29;;;;;;;5.60;2.90;;;;;;;21.04;100.00;98132.27;273053;1260;22353;-82
2023/08/05 14:24:30;;;;;;;4.30;3.70;;;;;;;21.02;100.00;98118.60;271519;1264;22308;-81
2023/08/05 14:30:32;;;;;;;8.10;3.20;;;;;;;21.01;100.00;98117.44;272212;1269;23334;-83
2023/08/05 14:36:34;;;;;;;5.20;3.50;;;;;;;21.01;100.00;98121.59;271870;1259;22391;-81
2023/08/05 14:42:35;;;;;;;5.20;3.50;;;;;;;21.00;100.00;98131.98;272305;1257;22278;-84
2023/08/05 14:48:37;;;;;;;4.00;3.50;;;;;;;20.97;100.00;98134.02;273168;1269;23266;-82
2023/08/05 14:54:39;;;;;;;3.90;3.20;;;;;;;20.92;100.00;98128.30;273112;1257;23675;-82
2023/08/05 15:00:40;;;;;;;5.60;3.00;;;;;;;20.90;100.00;98120.00;273213;1269;23212;-83
2023/08/05 15:06:42;;;;;;;4.60;2.80;;;;;;;20.89;100.00;98122.01;273097;1269;22570;-82
2023/08/05 15:12:44;;;;;;;5.40;2.70;;;;;;;20.90;100.00;98114.34;272512;1254;22549;-83
2023/08/05 15:18:45;;;;;;;4.10;2.90;;;;;;;20.90;100.00;98123.16;272226;1263;22245;-83
2023/08/05 15:24:47;;;;;;;4.60;3.60;;;;;;;20.84;100.00;98111.59;270903;1264;22570;-81
2023/08/05 15:30:49;;;;;;;4.10;2.80;;;;;;;20.72;100.00;98109.89;270341;1269;25385;-82
2023/08/05 15:36:50;;;;;;;3.60;2.70;;;;;;;20.63;100.00;98102.03;273066;1253;22387;-83
2023/08/05 15:42:52;;;;;;;4.30;2.90;;;;;;;20.58;100.00;98092.30;270440;1269;23418;-81
2023/08/05 15:48:54;;;;;;;3.70;3.30;;;;;;;20.57;100.00;98075.94;270871;1269;22557;-83
2023/08/05 15:54:55;;;;;;;6.90;3.60;;;;;;;20.56;100.00;98101.05;272128;1259;22591;-82
2023/08/05 16:00:59;;;;;;;4.50;3.40;;;;;;;20.56;100.00;98122.04;273255;1269;24237;-85
2023/08/05 16:07:00;;;;;;;4.90;3.40;;;;;;;20.56;100.00;98119.19;273182;1256;23126;-82
2023/08/05 16:13:02;;;;;;;3.80;3.10;;;;;;;20.55;100.00;98101.42;271731;1269;23692;-82
2023/08/05 16:19:04;;;;;;;4.40;3.10;;;;;;;20.55;100.00;98093.73;264712;1269;10001790;-82
2023/08/05 16:25:06;;;;;;;5.90;4.00;;;;;;;20.52;100.00;98073.90;270867;1269;24204;-82
2023/08/05 16:31:08;;;;;;;7.10;3.60;;;;;;;20.50;100.00;98079.34;271173;1269;22632;-81
2023/08/05 16:37:09;;;;;;;8.60;3.10;;;;;;;20.50;100.00;98074.58;271380;1269;22201;-82
2023/08/05 16:43:11;;;;;;;3.50;3.10;;;;;;;20.49;100.00;98069.75;273043;1261;22233;-83
2023/08/05 16:49:13;;;;;;;5.80;3.40;;;;;;;20.48;100.00;98067.84;273023;1269;22303;-82
2023/08/05 16:55:15;;;;;;;4.80;3.30;;;;;;;20.47;100.00;98058.79;272275;1267;22452;-82
2023/08/05 17:01:17;;;;;;;4.10;3.00;;;;;;;20.46;100.00;98067.84;273012;1269;22218;-83
2023/08/05 17:07:18;;;;;;;7.40;3.70;;;;;;;20.44;100.00;98073.34;272881;1253;23056;-82
2023/08/05 17:13:20;;;;;;;4.90;3.50;;;;;;;20.38;100.00;98083.89;271319;1269;23431;-82
2023/08/05 17:19:22;;;;;;;6.80;3.70;;;;;;;20.34;100.00;98073.83;270812;1269;22490;-82
2023/08/05 17:25:24;;;;;;;4.90;3.40;;;;;;;20.30;100.00;98052.48;271614;1269;22391;-82
2023/08/05 17:31:26;;;;;;;6.00;4.00;;;;;;;20.23;100.00;98046.08;272546;1262;23303;-82
2023/08/05 17:37:28;;;;;;;5.30;4.20;;;;;;;20.20;100.00;98051.69;272657;1269;22237;-82
2023/08/05 17:43:29;;;;;;;4.90;3.40;;;;;;;20.23;100.00;98062.23;273141;1253;22292;-82
2023/08/05 17:49:31;;;;;;;6.90;3.90;;;;;;;20.23;100.00;98071.52;273023;1269;22396;-82
2023/08/05 17:55:33;;;;;;;5.10;3.70;;;;;;;20.19;100.00;98079.38;273106;1257;23454;-82
2023/08/05 18:01:36;;;;;;;6.00;4.30;;;;;;;20.11;100.00;98094.61;272939;1269;23617;-82
2023/08/05 18:07:38;;;;;;;6.50;3.90;;;;;;;20.07;100.00;98073.10;270622;1269;22718;-82
2023/08/05 18:13:43;;;;;;;5.90;4.60;;;;;;;20.02;100.00;98053.63;273010;1269;22826;-83
2023/08/05 18:19:44;;;;;;;8.90;6.10;;;;;;;19.98;100.00;98036.41;272613;1265;23541;-82
2023/08/05 18:25:46;;;;;;;8.10;6.80;;;;;;;19.97;100.00;98030.42;271969;1269;22567;-82
2023/08/05 18:31:48;;;;;;;8.50;7.10;;;;;;;19.93;100.00;98012.66;271375;1260;22234;-81
2023/08/05 18:37:50;;;;;;;9.00;6.10;;;;;;;19.91;100.00;98000.69;270671;1263;24497;-82
2023/08/05 18:43:51;;;;;;;10.50;7.40;;;;;;;19.84;100.00;97979.40;271266;1269;22571;-83
2023/08/05 18:49:53;;;;;;;12.00;8.50;;;;;;;19.77;100.00;97971.81;271842;1265;23576;-80
2023/08/05 18:55:55;;;;;;;10.10;9.00;;;;;;;19.78;100.00;97987.13;271868;1269;23126;-81
2023/08/05 19:01:57;;;;;;;13.50;9.90;;;;;;;19.80;100.00;98034.52;273169;1256;22389;-83
2023/08/05 19:07:59;;;;;;;13.80;10.40;;;;;;;19.82;100.00;98064.61;271798;1259;23739;-83
2023/08/05 19:14:01;;;;;;;12.80;11.20;;;;;;;19.79;100.00;98018.66;270807;1269;22517;-82
2023/08/05 19:20:04;;;;;;;20.50;12.80;;;;;;;19.66;100.00;97965.93;271543;1269;22199;-82
2023/08/05 19:26:06;;;;;;;14.40;12.50;;;;;;;19.49;100.00;97889.16;273249;1267;22195;-84
2023/08/05 19:32:08;;;;;;;15.40;13.70;;;;;;;19.39;100.00;97885.57;273258;1269;22352;-82
2023/08/05 19:38:10;;;;;;;14.70;12.10;;;;;;;19.36;100.00;97939.42;272334;1257;23934;-82
2023/08/05 19:44:12;;;;;;;20.20;14.20;;;;;;;19.30;100.00;98025.21;273163;1260;22431;-83
2023/08/05 19:50:14;;;;;;;14.00;12.40;;;;;;;19.20;100.00;98082.09;273269;1259;22575;-84
2023/08/05 19:56:16;;;;;;;16.50;13.80;;;;;;;19.23;100.00;98106.45;273246;1256;22256;-83
2023/08/05 20:02:18;;;;;;;15.60;13.80;;;;;;;19.28;100.00;98113.19;272725;1260;22370;-83
2023/08/05 20:08:20;;;;;;;17.60;13.60;;;;;;;19.32;100.00;98126.31;273178;1262;22600;-83
2023/08/05 20:14:22;;;;;;;18.80;13.90;;;;;;;19.34;100.00;98093.09;272516;1266;23966;-83
2023/08/05 20:20:25;;;;;;;15.70;14.00;;;;;;;19.34;100.00;98090.31;272869;1269;22668;-85
2023/08/05 20:26:26;;;;;;;14.50;13.00;;;;;;;19.34;100.00;98066.61;271948;1256;22080;-85
2023/08/05 20:32:28;;;;;;;17.40;14.70;;;;;;;19.27;100.00;97960.16;272621;1269;22205;-85
2023/08/05 20:38:31;;;;;;;19.90;17.50;;;;;;;19.22;100.00;97904.40;270755;1257;22612;-84
2023/08/05 20:44:32;;;;;;;19.20;17.20;;;;;;;19.21;100.00;97943.20;270320;1258;24124;-84
2023/08/05 20:50:34;;;;;;;21.40;17.60;;;;;;;19.22;100.00;97996.73;270843;1256;22654;-84
2023/08/05 20:56:37;;;;;;;19.00;15.80;;;;;;;19.22;100.00;98001.40;270835;1265;23323;-84
2023/08/05 21:02:41;;;;;;;18.50;16.00;;;;;;;19.21;100.00;97947.95;271137;1269;23418;-85
2023/08/05 21:08:54;;;;;;;19.40;17.40;;;;;;;19.18;100.00;97870.63;271510;1269;22189;-84
2023/08/05 21:14:56;;;;;;;20.60;18.40;;;;;;;19.11;100.00;97791.35;270455;1269;22647;-84
2023/08/05 21:20:58;;;;;;;23.50;17.30;;;;;;;19.04;100.00;97701.16;270468;1269;22559;-83
2023/08/05 21:27:02;;;;;;;22.30;17.60;;;;;;;18.99;100.00;97727.41;271558;1259;22255;-84
2023/08/05 21:33:04;;;;;;;25.90;17.80;;;;;;;18.97;100.00;97755.52;273537;1258;22175;-81
2023/08/05 21:39:05;;;;;;;20.50;18.10;;;;;;;18.94;100.00;97769.72;273180;1269;22209;-82
2023/08/05 21:45:13;;;;;;;24.50;19.50;;;;;;;18.96;100.00;97780.16;273373;1262;22288;-83
2023/08/05 21:51:15;;;;;;;22.20;18.00;;;;;;;19.00;100.00;97811.55;273308;1268;23740;-85
2023/08/05 21:57:16;;;;;;;18.70;15.60;;;;;;;19.05;100.00;97852.71;273717;1269;23139;-84
2023/08/05 22:03:18;;;;;;;16.00;14.00;;;;;;;19.08;100.00;97848.46;273255;1266;22271;-83
2023/08/05 22:09:22;;;;;;;16.70;13.60;;;;;;;19.13;100.00;97812.73;273789;1269;23259;-82
2023/08/05 22:15:23;;;;;;;14.90;13.40;;;;;;;19.18;100.00;97796.90;273149;1269;22410;-84
2023/08/05 22:21:25;;;;;;;15.20;12.90;;;;;;;19.20;100.00;97826.56;273152;1268;22613;-83
2023/08/05 22:27:27;;;;;;;18.00;13.80;;;;;;;19.21;100.00;97828.01;272974;1259;22202;-83
2023/08/05 22:33:28;;;;;;;13.80;12.40;;;;;;;19.23;100.00;97831.98;273063;1265;23041;-83
2023/08/05 22:39:31;;;;;;;14.00;11.90;;;;;;;19.24;100.00;97833.13;272463;1262;22398;-86
2023/08/05 22:45:33;;;;;;;13.60;11.40;;;;;;;19.25;100.00;97853.20;272242;1269;22538;-84
2023/08/05 22:51:34;;;;;;;16.00;12.60;;;;;;;19.25;100.00;97834.17;271011;1270;22367;-85
2023/08/05 22:57:36;;;;;;;15.20;12.10;;;;;;;19.22;100.00;97825.11;273015;1269;23414;-83
2023/08/05 23:03:38;;;;;;;14.70;12.40;;;;;;;19.20;100.00;97804.77;273093;1269;22433;-82
2023/08/05 23:09:40;;;;;;;19.50;13.20;;;;;;;19.17;100.00;97716.36;272377;1270;22532;-84
2023/08/05 23:15:41;;;;;;;17.90;12.30;;;;;;;19.10;100.00;97618.63;271934;1270;22565;-84
2023/08/05 23:21:43;;;;;;;12.10;10.80;;;;;;;19.11;100.00;97679.20;270751;1269;22250;-84
2023/08/05 23:27:48;;;;;;;12.90;10.20;;;;;;;19.17;100.00;97710.51;272441;1269;22568;-83
2023/08/05 23:33:50;;;;;;;11.50;9.50;;;;;;;19.15;100.00;97717.95;272491;1269;23087;-83
2023/08/05 23:39:52;;;;;;;28.10;9.70;;;;;;;19.15;100.00;97732.12;272617;1264;22494;-84
2023/08/05 23:45:54;;;;;;;14.40;9.60;;;;;;;19.14;100.00;97724.25;273437;1269;23175;-84
2023/08/05 23:51:56;;;;;;;10.40;9.40;;;;;;;19.10;100.00;97689.33;272728;1262;22160;-84
2023/08/05 23:57:59;;;;;;;15.90;10.90;;;;;;;19.07;100.00;97646.09;272387;1267;22280;-84
